Time;durP1;ratioP1;P1;durP2;ratioP2;P2;SDS_P1;SDS_P2;PMS_P1;PMS_P2;Temp;Humidity;BMP_temperature;BMP_pressure;BME280_temperature;BME280_humidity;BME280_pressure;Samples;Min_cycle;Max_cycle;Signal;HPM_P1;HPM_P2
2022/12/07 00:02:23;;;;;;;29.43;13.43;;;;;;;;;;4988718;28;20449;-73
2022/12/07 00:05:07;;;;;;;28.30;13.40;;;;;;;;;;4995298;28;20934;-73
2022/12/07 00:07:33;;;;;;;32.47;14.80;;;;;;;;;;5009590;28;20509;-73
2022/12/07 00:10:00;;;;;;;28.37;12.87;;;;;;;;;;5010116;28;20803;-73
2022/12/07 00:12:27;;;;;;;28.63;13.07;;;;;;;;;;4981361;28;20462;-72
2022/12/07 00:14:54;;;;;;;33.27;14.27;;;;;;;;;;4987100;28;20458;-72
2022/12/07 00:17:20;;;;;;;27.50;11.73;;;;;;;;;;5009630;28;20590;-72
2022/12/07 00:19:47;;;;;;;33.87;14.20;;;;;;;;;;5008003;28;20451;-73
2022/12/07 00:22:13;;;;;;;32.67;14.60;;;;;;;;;;5007421;28;20558;-72
2022/12/07 00:24:40;;;;;;;30.97;13.93;;;;;;;;;;5009471;28;20471;-73
2022/12/07 00:27:07;;;;;;;29.13;13.43;;;;;;;;;;5017575;28;20521;-72
2022/12/07 00:29:33;;;;;;;29.57;12.40;;;;;;;;;;5014254;28;20431;-72
2022/12/07 00:32:00;;;;;;;27.33;13.17;;;;;;;;;;4991348;28;20491;-73
2022/12/07 00:34:26;;;;;;;30.17;13.63;;;;;;;;;;5010829;28;20454;-72
2022/12/07 00:36:53;;;;;;;29.23;13.33;;;;;;;;;;5012410;28;20534;-72
2022/12/07 00:39:19;;;;;;;25.90;12.47;;;;;;;;;;5013595;28;20492;-72
2022/12/07 00:41:46;;;;;;;29.70;13.47;;;;;;;;;;5012924;28;20447;-73
2022/12/07 00:44:13;;;;;;;31.93;14.40;;;;;;;;;;5010961;28;20874;-73
2022/12/07 00:46:39;;;;;;;30.13;13.20;;;;;;;;;;4993345;28;20457;-73
2022/12/07 00:49:06;;;;;;;31.70;13.27;;;;;;;;;;5012368;28;20830;-73
2022/12/07 00:51:32;;;;;;;32.23;13.80;;;;;;;;;;5011599;28;20558;-73
2022/12/07 00:53:59;;;;;;;31.63;13.33;;;;;;;;;;4979255;28;20432;-73
2022/12/07 00:56:26;;;;;;;30.70;12.37;;;;;;;;;;4996602;28;20470;-73
2022/12/07 00:58:54;;;;;;;31.33;14.07;;;;;;;;;;4982242;28;20464;-72
2022/12/07 01:01:38;;;;;;;30.43;12.20;;;;;;;;;;5013797;28;20415;-72
2022/12/07 01:04:04;;;;;;;31.93;14.07;;;;;;;;;;4999063;28;21059;-73
2022/12/07 01:06:49;;;;;;;31.43;14.50;;;;;;;;;;4995124;28;20441;-73
2022/12/07 01:09:15;;;;;;;32.03;13.30;;;;;;;;;;5011934;28;20461;-73
2022/12/07 01:11:59;;;;;;;29.43;12.23;;;;;;;;;;4996134;28;20514;-73
2022/12/07 01:14:26;;;;;;;30.80;13.10;;;;;;;;;;5012545;28;20478;-73
2022/12/07 01:16:52;;;;;;;31.97;13.97;;;;;;;;;;5012642;28;20497;-73
2022/12/07 01:19:19;;;;;;;31.53;13.13;;;;;;;;;;5010500;28;20478;-73
2022/12/07 01:21:45;;;;;;;32.43;13.33;;;;;;;;;;5013007;28;20541;-73
2022/12/07 01:24:12;;;;;;;30.60;13.17;;;;;;;;;;5008839;28;21052;-72
2022/12/07 01:26:39;;;;;;;30.83;12.73;;;;;;;;;;5012311;28;21104;-73
2022/12/07 01:29:06;;;;;;;30.13;13.80;;;;;;;;;;5000632;28;20453;-72
2022/12/07 01:31:32;;;;;;;34.67;13.73;;;;;;;;;;5013312;28;20430;-73
2022/12/07 01:33:59;;;;;;;28.83;12.83;;;;;;;;;;4995008;28;20451;-72
2022/12/07 01:36:31;;;;;;;26.57;12.17;;;;;;;;;;4993067;28;20799;-72
2022/12/07 01:39:15;;;;;;;31.17;12.77;;;;;;;;;;4997484;28;20788;-72
2022/12/07 01:41:43;;;;;;;31.07;13.23;;;;;;;;;;4993004;28;20976;-72
2022/12/07 01:44:19;;;;;;;30.03;13.37;;;;;;;;;;5012799;28;20475;-72
2022/12/07 01:46:47;;;;;;;28.13;12.97;;;;;;;;;;5022229;28;20476;-72
2022/12/07 01:49:24;;;;;;;28.90;12.57;;;;;;;;;;5015078;28;20541;-72
2022/12/07 01:51:52;;;;;;;29.30;12.50;;;;;;;;;;5033096;28;20438;-72
2022/12/07 01:54:18;;;;;;;29.53;12.30;;;;;;;;;;5001516;28;20836;-72
2022/12/07 01:56:47;;;;;;;31.03;11.97;;;;;;;;;;4992347;28;20491;-72
2022/12/07 01:59:13;;;;;;;28.60;12.80;;;;;;;;;;4993561;28;21412;-73
2022/12/07 02:01:40;;;;;;;29.87;12.30;;;;;;;;;;4992394;28;20828;-73
2022/12/07 02:04:06;;;;;;;29.67;11.77;;;;;;;;;;4994161;28;20479;-72
2022/12/07 02:06:33;;;;;;;28.30;12.57;;;;;;;;;;5012126;28;20483;-73
2022/12/07 02:09:17;;;;;;;30.30;12.50;;;;;;;;;;5011049;28;20981;-73
2022/12/07 02:11:44;;;;;;;29.07;11.30;;;;;;;;;;4978319;28;20548;-73
2022/12/07 02:14:28;;;;;;;23.40;10.80;;;;;;;;;;5011706;28;20451;-73
2022/12/07 02:17:02;;;;;;;24.73;11.00;;;;;;;;;;5011760;28;20993;-73
2022/12/07 02:19:41;;;;;;;23.93;10.87;;;;;;;;;;4978834;28;20435;-73
2022/12/07 02:22:14;;;;;;;21.77;10.10;;;;;;;;;;5011499;28;20459;-73
2022/12/07 02:24:52;;;;;;;21.53;9.07;;;;;;;;;;5011186;28;20505;-73
2022/12/07 02:27:24;;;;;;;22.33;8.63;;;;;;;;;;4999000;28;20481;-73
2022/12/07 02:30:04;;;;;;;22.43;8.93;;;;;;;;;;4993618;28;20465;-72
2022/12/07 02:32:51;;;;;;;17.63;8.60;;;;;;;;;;4993919;28;20451;-72
2022/12/07 02:35:44;;;;;;;17.77;8.13;;;;;;;;;;4980666;28;20461;-73
2022/12/07 02:38:21;;;;;;;17.13;8.43;;;;;;;;;;4967743;28;20504;-72
2022/12/07 02:40:50;;;;;;;16.73;7.83;;;;;;;;;;4994740;28;21021;-73
2022/12/07 02:43:23;;;;;;;15.63;7.37;;;;;;;;;;5008267;28;20549;-73
2022/12/07 02:45:51;;;;;;;16.77;7.83;;;;;;;;;;5009736;28;20818;-73
2022/12/07 02:48:17;;;;;;;27.07;8.93;;;;;;;;;;4977359;28;21038;-73
2022/12/07 02:50:50;;;;;;;21.03;8.53;;;;;;;;;;5011087;28;20509;-73
2022/12/07 02:53:33;;;;;;;20.57;8.80;;;;;;;;;;4992857;28;20457;-73
2022/12/07 02:56:05;;;;;;;19.00;8.70;;;;;;;;;;4993646;28;20448;-73
2022/12/07 02:58:39;;;;;;;15.23;7.17;;;;;;;;;;4993554;28;20451;-72
2022/12/07 03:01:08;;;;;;;24.00;8.07;;;;;;;;;;4993562;28;20498;-72
2022/12/07 03:03:35;;;;;;;17.53;7.83;;;;;;;;;;4992344;28;20483;-73
2022/12/07 03:06:11;;;;;;;16.57;7.80;;;;;;;;;;4994579;28;20810;-73
2022/12/07 03:08:47;;;;;;;16.90;7.20;;;;;;;;;;4979734;28;20498;-72
2022/12/07 03:11:16;;;;;;;15.47;7.67;;;;;;;;;;4974789;28;20439;-72
2022/12/07 03:14:07;;;;;;;18.33;7.37;;;;;;;;;;4986366;28;20953;-72
2022/12/07 03:16:35;;;;;;;14.47;6.60;;;;;;;;;;5011407;28;20459;-73
2022/12/07 03:19:12;;;;;;;15.27;7.30;;;;;;;;;;4993985;28;20545;-73
2022/12/07 03:21:40;;;;;;;16.43;7.57;;;;;;;;;;4994183;28;20436;-73
2022/12/07 03:24:08;;;;;;;16.70;7.60;;;;;;;;;;4987340;28;20483;-72
2022/12/07 03:26:36;;;;;;;16.17;7.70;;;;;;;;;;4986703;28;20790;-72
2022/12/07 03:29:05;;;;;;;15.60;7.20;;;;;;;;;;4994004;28;20423;-72
2022/12/07 03:31:32;;;;;;;16.30;6.83;;;;;;;;;;4993885;28;20833;-72
2022/12/07 03:34:01;;;;;;;14.63;6.70;;;;;;;;;;4994036;28;20808;-73
2022/12/07 03:36:32;;;;;;;14.33;6.80;;;;;;;;;;4993579;28;20974;-74
2022/12/07 03:39:03;;;;;;;13.47;6.77;;;;;;;;;;4974302;28;20440;-74
2022/12/07 03:41:31;;;;;;;14.93;7.27;;;;;;;;;;4971134;28;20445;-73
2022/12/07 03:43:57;;;;;;;15.90;7.20;;;;;;;;;;4974094;28;20468;-73
2022/12/07 03:46:27;;;;;;;12.40;6.33;;;;;;;;;;4974259;28;20516;-72
2022/12/07 03:48:53;;;;;;;12.30;6.60;;;;;;;;;;4991285;28;20447;-72
2022/12/07 03:51:28;;;;;;;11.87;5.90;;;;;;;;;;4990904;28;20475;-73
2022/12/07 03:54:18;;;;;;;12.17;6.83;;;;;;;;;;4976565;28;20528;-72
2022/12/07 03:56:45;;;;;;;12.53;6.30;;;;;;;;;;4974185;28;20441;-73
2022/12/07 03:59:11;;;;;;;12.73;5.87;;;;;;;;;;5006703;28;20435;-72
2022/12/07 04:01:38;;;;;;;11.30;6.00;;;;;;;;;;4992580;28;20997;-72
2022/12/07 04:04:04;;;;;;;11.47;5.80;;;;;;;;;;4991014;28;20474;-72
2022/12/07 04:06:48;;;;;;;11.47;6.00;;;;;;;;;;4991322;28;20509;-73
2022/12/07 04:09:15;;;;;;;9.90;4.80;;;;;;;;;;4986717;28;20537;-72
2022/12/07 04:11:59;;;;;;;9.70;4.17;;;;;;;;;;4993221;28;20431;-72
2022/12/07 04:14:25;;;;;;;11.00;5.47;;;;;;;;;;4992884;28;20442;-72
2022/12/07 04:17:10;;;;;;;8.60;4.37;;;;;;;;;;5009550;28;20442;-72
2022/12/07 04:19:36;;;;;;;7.17;4.10;;;;;;;;;;5009491;28;20455;-72
2022/12/07 04:22:03;;;;;;;7.63;3.93;;;;;;;;;;4988895;28;20460;-73
2022/12/07 04:24:30;;;;;;;8.60;4.13;;;;;;;;;;4990856;28;20541;-73
2022/12/07 04:26:57;;;;;;;6.53;3.53;;;;;;;;;;4978370;28;20518;-73
2022/12/07 04:29:41;;;;;;;7.67;4.10;;;;;;;;;;5030158;28;20498;-73
2022/12/07 04:32:07;;;;;;;6.00;3.57;;;;;;;;;;5030326;28;20456;-72
2022/12/07 04:34:34;;;;;;;8.03;4.13;;;;;;;;;;5013021;28;20469;-72
2022/12/07 04:37:00;;;;;;;5.07;3.03;;;;;;;;;;5010283;28;20527;-72
2022/12/07 04:39:28;;;;;;;6.13;3.40;;;;;;;;;;4990311;28;20788;-72
2022/12/07 04:41:55;;;;;;;8.77;4.03;;;;;;;;;;4989985;28;20865;-71
2022/12/07 04:44:23;;;;;;;7.73;4.30;;;;;;;;;;4979108;28;20993;-75
2022/12/07 04:46:50;;;;;;;5.90;3.67;;;;;;;;;;4969995;28;20451;-78
2022/12/07 04:49:34;;;;;;;6.40;3.87;;;;;;;;;;4995835;28;20608;-77
2022/12/07 04:52:01;;;;;;;6.83;4.23;;;;;;;;;;4988731;28;20542;-76
2022/12/07 04:54:29;;;;;;;6.63;3.60;;;;;;;;;;4974080;28;20497;-74
2022/12/07 04:56:56;;;;;;;7.60;2.73;;;;;;;;;;4987769;28;20453;-73
2022/12/07 04:59:22;;;;;;;6.23;3.70;;;;;;;;;;4973362;28;20456;-73
2022/12/07 05:02:08;;;;;;;6.17;3.27;;;;;;;;;;5005275;28;20556;-74
2022/12/07 05:04:35;;;;;;;7.20;3.97;;;;;;;;;;5006713;28;20558;-70
2022/12/07 05:07:02;;;;;;;6.73;3.70;;;;;;;;;;4966351;28;20471;-70
2022/12/07 05:09:29;;;;;;;5.60;3.33;;;;;;;;;;4962472;28;20455;-70
2022/12/07 05:11:56;;;;;;;9.37;4.37;;;;;;;;;;4977832;28;20446;-74
2022/12/07 05:14:23;;;;;;;7.03;3.87;;;;;;;;;;4977249;28;20955;-79
2022/12/07 05:16:50;;;;;;;5.93;3.60;;;;;;;;;;4977492;28;20430;-74
2022/12/07 05:19:17;;;;;;;7.53;4.43;;;;;;;;;;4995211;28;20838;-72
2022/12/07 05:22:02;;;;;;;7.60;3.87;;;;;;;;;;5006478;28;20491;-74
2022/12/07 05:24:29;;;;;;;6.17;3.50;;;;;;;;;;5010941;28;20861;-75
2022/12/07 05:27:14;;;;;;;5.80;3.90;;;;;;;;;;4979288;28;20448;-72
2022/12/07 05:29:41;;;;;;;6.97;3.97;;;;;;;;;;5008618;28;20479;-70
2022/12/07 05:32:08;;;;;;;4.67;2.80;;;;;;;;;;4984100;28;20478;-70
2022/12/07 05:34:34;;;;;;;6.07;3.73;;;;;;;;;;4981741;28;20443;-72
2022/12/07 05:37:01;;;;;;;6.80;3.90;;;;;;;;;;5013675;28;20946;-71
2022/12/07 05:39:46;;;;;;;6.20;3.70;;;;;;;;;;5014372;28;20517;-73
2022/12/07 05:42:13;;;;;;;6.40;3.60;;;;;;;;;;5013243;28;20871;-72
2022/12/07 05:44:40;;;;;;;6.60;4.17;;;;;;;;;;5013139;28;20478;-73
2022/12/07 05:47:06;;;;;;;5.73;3.70;;;;;;;;;;5012136;28;20482;-73
2022/12/07 05:49:33;;;;;;;5.50;2.37;;;;;;;;;;5013032;28;20517;-69
2022/12/07 05:51:59;;;;;;;5.73;3.43;;;;;;;;;;4995268;28;20850;-71
2022/12/07 05:54:26;;;;;;;4.20;2.90;;;;;;;;;;5013161;28;20442;-74
2022/12/07 05:56:53;;;;;;;3.80;2.60;;;;;;;;;;4995360;28;20430;-73
2022/12/07 05:59:23;;;;;;;4.40;2.37;;;;;;;;;;4993579;28;20964;-70
2022/12/07 06:01:54;;;;;;;2.90;2.00;;;;;;;;;;4976125;28;21255;-73
2022/12/07 06:04:21;;;;;;;3.03;2.17;;;;;;;;;;5009853;28;20494;-73
2022/12/07 06:06:48;;;;;;;3.77;1.60;;;;;;;;;;4992517;28;20856;-72
2022/12/07 06:09:15;;;;;;;2.23;1.37;;;;;;;;;;4992529;28;20445;-73
2022/12/07 06:14:27;;;;;;;1.77;1.10;;;;;;;;;;5009274;28;21049;-75
2022/12/07 06:16:54;;;;;;;1.70;1.10;;;;;;;;;;5009230;28;20527;-75
2022/12/07 06:19:23;;;;;;;2.07;1.37;;;;;;;;;;4970843;28;20534;-78
2022/12/07 06:21:50;;;;;;;2.57;1.80;;;;;;;;;;5001688;28;20489;-79
2022/12/07 06:24:17;;;;;;;1.63;1.30;;;;;;;;;;5007293;28;20466;-80
2022/12/07 06:26:43;;;;;;;0.87;0.80;;;;;;;;;;5011169;28;20450;-72
2022/12/07 06:29:10;;;;;;;2.77;1.83;;;;;;;;;;5032118;28;20438;-74
2022/12/07 06:31:37;;;;;;;2.90;2.03;;;;;;;;;;4999428;28;21007;-71
2022/12/07 06:34:04;;;;;;;3.83;2.33;;;;;;;;;;5012159;28;20430;-74
2022/12/07 06:36:30;;;;;;;3.23;2.40;;;;;;;;;;4994785;28;20434;-75
2022/12/07 06:38:58;;;;;;;3.57;2.33;;;;;;;;;;5012191;28;20843;-73
2022/12/07 06:41:25;;;;;;;4.27;2.63;;;;;;;;;;4994900;28;20427;-73
2022/12/07 06:43:52;;;;;;;4.00;2.63;;;;;;;;;;4994874;28;20435;-77
2022/12/07 06:46:21;;;;;;;7.87;5.20;;;;;;;;;;5011991;28;20467;-74
2022/12/07 06:48:49;;;;;;;6.80;3.70;;;;;;;;;;4994645;28;20848;-73
2022/12/07 06:51:16;;;;;;;4.30;3.50;;;;;;;;;;4990625;28;20467;-75
2022/12/07 06:53:43;;;;;;;5.57;3.67;;;;;;;;;;4991104;28;20442;-77
2022/12/07 06:56:09;;;;;;;5.77;3.30;;;;;;;;;;4974590;28;20946;-75
2022/12/07 06:58:36;;;;;;;5.20;3.63;;;;;;;;;;4990890;28;20429;-76
2022/12/07 07:01:02;;;;;;;5.37;3.70;;;;;;;;;;4990938;28;20439;-77
2022/12/07 07:03:30;;;;;;;6.33;3.90;;;;;;;;;;4986583;28;20438;-75
2022/12/07 07:05:57;;;;;;;7.77;4.10;;;;;;;;;;4956448;28;20483;-71
2022/12/07 07:08:24;;;;;;;6.47;4.30;;;;;;;;;;4986254;28;20483;-69
2022/12/07 07:10:51;;;;;;;8.13;4.10;;;;;;;;;;4980968;28;20452;-70
2022/12/07 07:13:19;;;;;;;6.87;4.53;;;;;;;;;;4988920;28;20591;-75
2022/12/07 07:15:47;;;;;;;8.10;4.37;;;;;;;;;;5006697;28;21006;-76
2022/12/07 07:18:14;;;;;;;6.23;4.47;;;;;;;;;;4986065;28;20437;-74
2022/12/07 07:20:41;;;;;;;7.83;4.83;;;;;;;;;;4988443;28;20787;-74
2022/12/07 07:23:08;;;;;;;6.60;4.00;;;;;;;;;;4988238;28;20891;-69
2022/12/07 07:25:35;;;;;;;8.07;5.20;;;;;;;;;;4987811;28;20486;-72
2022/12/07 07:28:01;;;;;;;7.27;4.77;;;;;;;;;;4999644;28;20463;-73
2022/12/07 07:30:28;;;;;;;6.17;3.83;;;;;;;;;;4979302;28;22119;-71
2022/12/07 07:32:58;;;;;;;8.67;5.20;;;;;;;;;;4987351;28;20453;-72
2022/12/07 07:35:26;;;;;;;9.40;5.70;;;;;;;;;;4991893;28;20443;-71
2022/12/07 07:37:52;;;;;;;9.53;5.77;;;;;;;;;;4980048;28;20834;-70
2022/12/07 07:40:19;;;;;;;10.20;6.70;;;;;;;;;;4988997;28;20450;-71
2022/12/07 07:42:49;;;;;;;11.80;6.50;;;;;;;;;;4971488;28;20448;-71
2022/12/07 07:45:34;;;;;;;13.33;7.17;;;;;;;;;;4986043;28;20996;-72
2022/12/07 07:48:01;;;;;;;8.87;4.90;;;;;;;;;;4987183;28;20984;-70
2022/12/07 07:50:28;;;;;;;13.97;7.13;;;;;;;;;;5000727;28;21008;-73
2022/12/07 07:52:55;;;;;;;11.17;7.77;;;;;;;;;;4990050;28;20997;-70
2022/12/07 07:55:22;;;;;;;11.93;7.67;;;;;;;;;;4991327;28;20542;-70
2022/12/07 07:57:48;;;;;;;14.40;8.80;;;;;;;;;;4989317;28;20434;-70
2022/12/07 08:00:20;;;;;;;15.57;8.03;;;;;;;;;;5006880;28;20508;-72
2022/12/07 08:02:47;;;;;;;9.63;4.83;;;;;;;;;;4965423;28;20459;-74
2022/12/07 08:05:14;;;;;;;13.77;8.50;;;;;;;;;;4989920;28;20460;-70
2022/12/07 08:07:41;;;;;;;15.70;9.17;;;;;;;;;;5008048;28;20504;-69
2022/12/07 08:10:09;;;;;;;15.73;8.70;;;;;;;;;;4988922;28;20875;-74
2022/12/07 08:12:37;;;;;;;15.13;9.00;;;;;;;;;;4990533;28;20990;-74
2022/12/07 08:15:04;;;;;;;13.67;8.57;;;;;;;;;;4990602;28;20493;-71
2022/12/07 08:17:31;;;;;;;15.57;7.97;;;;;;;;;;4998997;28;20425;-72
2022/12/07 08:19:59;;;;;;;12.33;8.53;;;;;;;;;;4972800;28;20440;-74
2022/12/07 08:22:26;;;;;;;13.63;8.37;;;;;;;;;;4990010;28;21004;-74
2022/12/07 08:24:53;;;;;;;11.90;7.17;;;;;;;;;;4990195;28;21219;-74
2022/12/07 08:27:20;;;;;;;12.67;7.30;;;;;;;;;;5011772;28;20433;-71
2022/12/07 08:29:50;;;;;;;10.63;6.27;;;;;;;;;;4989198;28;20437;-72
2022/12/07 08:32:16;;;;;;;10.33;7.07;;;;;;;;;;4988594;28;20445;-70
2022/12/07 08:34:46;;;;;;;8.53;5.67;;;;;;;;;;4989916;28;20441;-71
2022/12/07 08:37:14;;;;;;;8.87;5.80;;;;;;;;;;4990873;28;20438;-74
2022/12/07 08:39:40;;;;;;;9.87;7.13;;;;;;;;;;4972857;28;21163;-75
2022/12/07 08:42:07;;;;;;;12.50;7.37;;;;;;;;;;5010943;28;20433;-73
2022/12/07 08:44:34;;;;;;;8.27;5.47;;;;;;;;;;5007709;28;20437;-68
2022/12/07 08:47:02;;;;;;;8.90;5.27;;;;;;;;;;5010360;28;20444;-74
2022/12/07 08:49:35;;;;;;;9.07;5.23;;;;;;;;;;4981967;28;20853;-71
2022/12/07 08:52:05;;;;;;;10.97;5.67;;;;;;;;;;4998717;28;20450;-71
2022/12/07 08:54:31;;;;;;;9.43;5.57;;;;;;;;;;4991576;28;20428;-72
2022/12/07 08:56:58;;;;;;;7.63;4.87;;;;;;;;;;5011113;28;20431;-74
2022/12/07 08:59:26;;;;;;;8.17;5.00;;;;;;;;;;4992554;28;20493;-75
2022/12/07 09:01:53;;;;;;;6.63;4.87;;;;;;;;;;4986978;28;21026;-72
2022/12/07 09:04:20;;;;;;;8.33;4.30;;;;;;;;;;5011287;28;20438;-74
2022/12/07 09:06:47;;;;;;;6.23;4.40;;;;;;;;;;4989771;28;21063;-71
2022/12/07 09:09:17;;;;;;;8.57;4.90;;;;;;;;;;5026349;28;20515;-72
2022/12/07 09:11:45;;;;;;;3.97;2.80;;;;;;;;;;5003612;28;20834;-69
2022/12/07 09:14:12;;;;;;;6.10;3.47;;;;;;;;;;5011314;28;20434;-69
2022/12/07 09:16:38;;;;;;;8.77;5.60;;;;;;;;;;5011398;28;20524;-73
2022/12/07 09:19:05;;;;;;;9.43;4.93;;;;;;;;;;5011225;28;20472;-70
2022/12/07 09:21:33;;;;;;;6.10;3.80;;;;;;;;;;4991634;28;20781;-71
2022/12/07 09:24:18;;;;;;;8.30;5.27;;;;;;;;;;4979855;28;20618;-70
2022/12/07 09:26:46;;;;;;;7.60;5.30;;;;;;;;;;5011210;28;20505;-70
2022/12/07 09:29:31;;;;;;;6.30;4.00;;;;;;;;;;5023160;28;20419;-70
2022/12/07 09:31:58;;;;;;;4.97;3.87;;;;;;;;;;5010254;28;20445;-70
2022/12/07 09:34:26;;;;;;;10.23;5.67;;;;;;;;;;4993740;28;20593;-69
2022/12/07 09:36:53;;;;;;;5.70;3.43;;;;;;;;;;4999619;28;20441;-68
2022/12/07 09:39:19;;;;;;;7.73;5.40;;;;;;;;;;5030903;28;20466;-68
2022/12/07 09:42:05;;;;;;;6.77;4.83;;;;;;;;;;5018928;28;20476;-71
2022/12/07 09:44:32;;;;;;;6.47;4.30;;;;;;;;;;4991782;28;20443;-66
2022/12/07 09:47:17;;;;;;;8.90;5.70;;;;;;;;;;5010529;28;20435;-69
2022/12/07 09:49:44;;;;;;;10.53;6.70;;;;;;;;;;5010557;28;20522;-68
2022/12/07 09:52:18;;;;;;;9.90;6.83;;;;;;;;;;4976845;28;20455;-69
2022/12/07 09:54:46;;;;;;;7.33;3.83;;;;;;;;;;4993496;28;20431;-68
2022/12/07 09:57:12;;;;;;;9.73;6.00;;;;;;;;;;5009235;28;20465;-68
2022/12/07 09:59:40;;;;;;;10.07;7.07;;;;;;;;;;5010178;28;20490;-69
2022/12/07 10:02:26;;;;;;;11.50;6.23;;;;;;;;;;4992365;28;20482;-72
2022/12/07 10:05:14;;;;;;;14.50;7.80;;;;;;;;;;4994892;28;20468;-70
2022/12/07 10:07:49;;;;;;;10.60;5.83;;;;;;;;;;4993167;28;20841;-70
2022/12/07 10:10:19;;;;;;;13.67;7.67;;;;;;;;;;4981386;28;20466;-68
2022/12/07 10:12:59;;;;;;;10.43;7.53;;;;;;;;;;4978480;28;20464;-70
2022/12/07 10:15:44;;;;;;;10.47;7.00;;;;;;;;;;5012697;28;20433;-69
2022/12/07 10:18:30;;;;;;;12.80;7.40;;;;;;;;;;4989415;28;20533;-68
2022/12/07 10:21:12;;;;;;;10.37;6.30;;;;;;;;;;4991872;28;20524;-68
2022/12/07 10:23:58;;;;;;;9.57;5.30;;;;;;;;;;4988814;28;20991;-67
2022/12/07 10:26:51;;;;;;;5.63;3.10;;;;;;;;;;4998957;28;20543;-67
2022/12/07 10:29:29;;;;;;;11.73;5.37;;;;;;;;;;5029683;28;20420;-68
2022/12/07 10:31:56;;;;;;;6.83;3.47;;;;;;;;;;5001745;28;20913;-67
2022/12/07 10:34:24;;;;;;;8.53;5.00;;;;;;;;;;4991918;28;20955;-68
2022/12/07 10:36:51;;;;;;;7.97;5.63;;;;;;;;;;4991721;28;20792;-66
2022/12/07 10:39:41;;;;;;;8.37;5.13;;;;;;;;;;4994052;28;20465;-68
2022/12/07 10:42:09;;;;;;;7.20;3.53;;;;;;;;;;5009407;28;20986;-69
2022/12/07 10:44:36;;;;;;;8.10;5.63;;;;;;;;;;4998606;28;20779;-67
2022/12/07 10:47:09;;;;;;;10.93;5.37;;;;;;;;;;5007822;28;21074;-68
2022/12/07 10:49:39;;;;;;;9.93;6.10;;;;;;;;;;4997923;28;20447;-68
2022/12/07 10:52:24;;;;;;;9.53;5.33;;;;;;;;;;5008826;28;20863;-68
2022/12/07 10:55:20;;;;;;;6.73;3.80;;;;;;;;;;5013166;28;20423;-68
2022/12/07 10:58:02;;;;;;;9.97;5.90;;;;;;;;;;4994220;28;20440;-69
2022/12/07 11:00:47;;;;;;;6.40;4.27;;;;;;;;;;5013797;28;20435;-67
2022/12/07 11:03:14;;;;;;;9.43;6.07;;;;;;;;;;5008198;28;20451;-70
2022/12/07 11:06:11;;;;;;;9.63;6.03;;;;;;;;;;4989562;28;20479;-70
2022/12/07 11:08:38;;;;;;;10.57;6.23;;;;;;;;;;4990550;28;20442;-67
2022/12/07 11:11:22;;;;;;;7.10;4.13;;;;;;;;;;5007749;28;20430;-67
2022/12/07 11:13:52;;;;;;;8.57;5.00;;;;;;;;;;5004812;28;21228;-69
2022/12/07 11:16:59;;;;;;;11.80;5.93;;;;;;;;;;4992430;28;20437;-71
2022/12/07 11:19:35;;;;;;;5.00;3.63;;;;;;;;;;4938764;29;20439;-69
2022/12/07 11:22:22;;;;;;;6.90;3.97;;;;;;;;;;4929489;29;20442;-71
2022/12/07 11:24:55;;;;;;;11.07;7.13;;;;;;;;;;4973492;28;20443;-75
2022/12/07 11:27:21;;;;;;;9.20;5.47;;;;;;;;;;5014177;28;20465;-73
2022/12/07 11:29:50;;;;;;;8.47;5.70;;;;;;;;;;4998743;28;20466;-69
2022/12/07 11:32:35;;;;;;;7.60;4.97;;;;;;;;;;5008143;28;20441;-71
2022/12/07 11:35:09;;;;;;;9.27;6.13;;;;;;;;;;5008752;28;20434;-71
2022/12/07 11:37:37;;;;;;;7.23;4.83;;;;;;;;;;4990645;28;20431;-68
2022/12/07 11:40:25;;;;;;;8.70;5.57;;;;;;;;;;4991006;28;20431;-68
2022/12/07 11:42:53;;;;;;;8.57;5.20;;;;;;;;;;4990805;28;20507;-68
2022/12/07 11:45:57;;;;;;;4.97;2.73;;;;;;;;;;4976763;28;20462;-70
2022/12/07 11:48:24;;;;;;;8.40;5.60;;;;;;;;;;5002486;28;20451;-68
2022/12/07 11:51:00;;;;;;;4.67;3.20;;;;;;;;;;4990199;28;21202;-68
2022/12/07 11:53:35;;;;;;;7.50;4.70;;;;;;;;;;4974008;28;20533;-70
2022/12/07 11:56:09;;;;;;;6.50;3.60;;;;;;;;;;5008744;28;20467;-69
2022/12/07 11:58:37;;;;;;;10.37;6.37;;;;;;;;;;4990580;28;20442;-74
2022/12/07 12:01:22;;;;;;;10.03;5.70;;;;;;;;;;4985341;28;20448;-69
2022/12/07 12:03:51;;;;;;;6.53;4.27;;;;;;;;;;5022322;28;20515;-71
2022/12/07 12:06:19;;;;;;;7.73;5.37;;;;;;;;;;4994807;28;20525;-73
2022/12/07 12:08:47;;;;;;;7.53;4.87;;;;;;;;;;4990424;28;20446;-72
2022/12/07 12:11:35;;;;;;;10.03;6.00;;;;;;;;;;4989534;28;20450;-73
2022/12/07 12:14:20;;;;;;;10.37;5.03;;;;;;;;;;5006169;28;20463;-72
2022/12/07 12:17:03;;;;;;;9.97;5.87;;;;;;;;;;4990824;28;20946;-72
2022/12/07 12:20:04;;;;;;;10.73;6.40;;;;;;;;;;4995052;28;20954;-72
2022/12/07 12:22:43;;;;;;;10.43;5.53;;;;;;;;;;4997014;28;20448;-73
2022/12/07 12:25:28;;;;;;;10.00;6.37;;;;;;;;;;4997357;28;20456;-72
2022/12/07 12:27:56;;;;;;;10.80;6.17;;;;;;;;;;5014113;28;20518;-71
2022/12/07 12:30:29;;;;;;;8.50;4.50;;;;;;;;;;4978095;28;20947;-71
2022/12/07 12:33:01;;;;;;;11.00;6.47;;;;;;;;;;4992100;28;21037;-69
2022/12/07 12:35:33;;;;;;;10.57;6.37;;;;;;;;;;4993906;28;20500;-71
2022/12/07 12:38:19;;;;;;;10.23;6.93;;;;;;;;;;4993026;28;20442;-74
2022/12/07 12:40:49;;;;;;;9.10;6.03;;;;;;;;;;5008512;28;20806;-70
2022/12/07 12:43:35;;;;;;;8.03;4.87;;;;;;;;;;4994622;28;20434;-71
2022/12/07 12:46:21;;;;;;;11.30;5.50;;;;;;;;;;5019060;28;20468;-71
2022/12/07 12:48:48;;;;;;;11.07;6.87;;;;;;;;;;4992920;28;20605;-71
2022/12/07 12:51:46;;;;;;;7.87;5.13;;;;;;;;;;4992945;28;20459;-70
2022/12/07 12:54:14;;;;;;;9.43;6.13;;;;;;;;;;4979218;28;20749;-67
2022/12/07 12:56:52;;;;;;;10.03;6.17;;;;;;;;;;4991784;28;20438;-69
2022/12/07 12:59:24;;;;;;;12.57;7.63;;;;;;;;;;4975047;28;20438;-69
2022/12/07 13:02:16;;;;;;;9.40;6.93;;;;;;;;;;4993538;28;20444;-70
2022/12/07 13:04:49;;;;;;;9.33;5.93;;;;;;;;;;4984325;28;20480;-69
2022/12/07 13:07:35;;;;;;;8.33;4.60;;;;;;;;;;4977028;28;20480;-70
2022/12/07 13:10:03;;;;;;;10.30;6.33;;;;;;;;;;5011331;28;20446;-73
2022/12/07 13:13:05;;;;;;;10.60;5.97;;;;;;;;;;4990747;28;20978;-73
2022/12/07 13:15:32;;;;;;;10.83;6.37;;;;;;;;;;5030997;28;20452;-73
2022/12/07 13:18:01;;;;;;;10.20;6.47;;;;;;;;;;5020913;28;20431;-72
2022/12/07 13:20:47;;;;;;;6.57;4.27;;;;;;;;;;4993478;28;20447;-75
2022/12/07 13:23:14;;;;;;;9.67;5.20;;;;;;;;;;5016542;28;20442;-75
2022/12/07 13:25:45;;;;;;;10.93;5.17;;;;;;;;;;4997757;28;20835;-73
2022/12/07 13:28:16;;;;;;;10.97;5.67;;;;;;;;;;4983775;28;20768;-70
2022/12/07 13:31:03;;;;;;;10.20;6.30;;;;;;;;;;4992908;28;20443;-73
2022/12/07 13:33:29;;;;;;;9.20;5.00;;;;;;;;;;5012637;28;20497;-69
2022/12/07 13:35:56;;;;;;;4.63;3.20;;;;;;;;;;4992861;28;20831;-71
2022/12/07 13:38:26;;;;;;;11.60;6.13;;;;;;;;;;4993055;28;20439;-74
2022/12/07 13:41:02;;;;;;;7.83;5.17;;;;;;;;;;4992888;28;20504;-75
2022/12/07 13:43:28;;;;;;;10.23;5.53;;;;;;;;;;4991845;28;21001;-70
2022/12/07 13:46:00;;;;;;;8.73;5.30;;;;;;;;;;5014180;28;20438;-71
2022/12/07 13:48:32;;;;;;;6.90;3.47;;;;;;;;;;4993160;28;20447;-73
2022/12/07 13:51:20;;;;;;;8.87;5.30;;;;;;;;;;5012110;28;20506;-71
2022/12/07 13:53:48;;;;;;;5.70;3.07;;;;;;;;;;5010955;28;20465;-71
2022/12/07 13:56:15;;;;;;;10.80;5.40;;;;;;;;;;4992870;28;20822;-68
2022/12/07 13:58:42;;;;;;;9.60;4.57;;;;;;;;;;5009693;28;20449;-71
2022/12/07 14:01:09;;;;;;;12.00;4.97;;;;;;;;;;5014740;28;20524;-71
2022/12/07 14:03:36;;;;;;;7.43;3.57;;;;;;;;;;4976298;28;20834;-70
2022/12/07 14:06:25;;;;;;;12.00;6.10;;;;;;;;;;5009648;28;20536;-72
2022/12/07 14:09:17;;;;;;;13.17;5.03;;;;;;;;;;5005942;28;20423;-74
2022/12/07 14:11:45;;;;;;;9.10;4.73;;;;;;;;;;4991314;28;20461;-72
2022/12/07 14:14:13;;;;;;;11.93;6.33;;;;;;;;;;4974375;28;20475;-71
2022/12/07 14:16:41;;;;;;;6.93;4.43;;;;;;;;;;4991077;28;20451;-71
2022/12/07 14:19:27;;;;;;;9.27;3.23;;;;;;;;;;5004925;28;20500;-72
2022/12/07 14:22:07;;;;;;;7.57;4.53;;;;;;;;;;5008872;28;20485;-71
2022/12/07 14:24:43;;;;;;;5.63;3.00;;;;;;;;;;4977171;28;20539;-71
2022/12/07 14:27:25;;;;;;;12.77;6.03;;;;;;;;;;4996009;28;20477;-70
2022/12/07 14:29:52;;;;;;;8.47;4.87;;;;;;;;;;5024554;28;20439;-70
2022/12/07 14:32:28;;;;;;;9.07;5.07;;;;;;;;;;5023327;28;20447;-70
2022/12/07 14:34:55;;;;;;;9.67;4.47;;;;;;;;;;4995349;28;20438;-70
2022/12/07 14:37:40;;;;;;;12.03;6.20;;;;;;;;;;4969321;28;20570;-71
2022/12/07 14:40:07;;;;;;;9.90;5.27;;;;;;;;;;4994520;28;20438;-71
2022/12/07 14:42:34;;;;;;;10.60;6.20;;;;;;;;;;4994738;28;20509;-70
2022/12/07 14:45:01;;;;;;;10.70;5.70;;;;;;;;;;4993658;28;21000;-70
2022/12/07 14:47:28;;;;;;;8.10;3.60;;;;;;;;;;5010947;28;20506;-70
2022/12/07 14:50:16;;;;;;;8.67;4.50;;;;;;;;;;4990523;28;20518;-70
2022/12/07 14:52:43;;;;;;;7.97;4.83;;;;;;;;;;4991873;28;20436;-70
2022/12/07 14:55:30;;;;;;;7.03;3.60;;;;;;;;;;4976886;28;20439;-70
2022/12/07 14:57:58;;;;;;;9.83;5.10;;;;;;;;;;4989456;28;20436;-71
2022/12/07 15:00:25;;;;;;;9.40;4.50;;;;;;;;;;4973965;28;20493;-71
2022/12/07 15:02:52;;;;;;;6.07;3.43;;;;;;;;;;4989368;28;20506;-70
2022/12/07 15:05:19;;;;;;;8.00;4.13;;;;;;;;;;4989580;28;20436;-70
2022/12/07 15:08:03;;;;;;;9.10;5.77;;;;;;;;;;4981218;28;21057;-71